Time;durP1;ratioP1;P1;durP2;ratioP2;P2;SDS_P1;SDS_P2;PMS_P1;PMS_P2;Temp;Humidity;BMP_temperature;BMP_pressure;BME280_temperature;BME280_humidity;BME280_pressure;Samples;Min_cycle;Max_cycle;Signal;HPM_P1;HPM_P2
2022/12/27 00:01:16;;;;;;;10.63;5.70;;;;;;;5.64;100.00;95169.94;5092233;28;20306;-54
2022/12/27 00:03:42;;;;;;;8.27;5.83;;;;;;;5.60;100.00;95170.19;5092504;28;20191;-56
2022/12/27 00:06:13;;;;;;;7.27;5.07;;;;;;;5.68;100.00;95181.47;5092158;28;20703;-55
2022/12/27 00:08:39;;;;;;;9.77;5.90;;;;;;;5.74;100.00;95187.88;5091962;28;20195;-56
2022/12/27 00:11:10;;;;;;;11.73;6.57;;;;;;;5.85;100.00;95214.16;5092359;28;20215;-56
2022/12/27 00:13:35;;;;;;;10.07;5.60;;;;;;;5.87;100.00;95216.59;5092197;28;20194;-55
2022/12/27 00:16:03;;;;;;;10.10;5.70;;;;;;;5.96;100.00;95226.13;5091781;28;20208;-55
2022/12/27 00:18:29;;;;;;;10.70;5.90;;;;;;;5.92;100.00;95214.59;5092072;28;20187;-56
2022/12/27 00:20:59;;;;;;;14.17;7.40;;;;;;;5.82;100.00;95160.50;5092063;28;20208;-52
2022/12/27 00:23:25;;;;;;;12.00;5.97;;;;;;;5.91;100.00;95198.66;5091987;28;20241;-53
2022/12/27 00:25:50;;;;;;;11.47;5.83;;;;;;;6.03;100.00;95216.50;5091835;28;20218;-54
2022/12/27 00:28:16;;;;;;;9.70;5.83;;;;;;;6.02;100.00;95209.84;5092486;28;20184;-55
2022/12/27 00:30:42;;;;;;;11.90;5.53;;;;;;;6.06;100.00;95231.50;5092002;28;20212;-56
2022/12/27 00:33:08;;;;;;;11.03;5.70;;;;;;;6.00;100.00;95192.25;5092005;28;20194;-56
2022/12/27 00:35:33;;;;;;;9.90;5.90;;;;;;;5.86;100.00;95177.94;5071613;28;20219;-55
2022/12/27 00:37:59;;;;;;;8.50;5.80;;;;;;;5.85;100.00;95213.34;5090299;28;20845;-55
2022/12/27 00:40:25;;;;;;;11.43;6.20;;;;;;;5.77;100.00;95180.97;5090152;28;20215;-55
2022/12/27 00:42:50;;;;;;;10.80;6.27;;;;;;;5.74;100.00;95195.44;5090231;28;20256;-56
2022/12/27 00:45:16;;;;;;;9.83;6.40;;;;;;;5.65;100.00;95195.97;5091923;28;20639;-57
2022/12/27 00:47:41;;;;;;;10.87;6.33;;;;;;;5.57;100.00;95210.72;5091421;28;20184;-56
2022/12/27 00:50:07;;;;;;;9.90;6.77;;;;;;;5.68;100.00;95256.31;5091591;28;20254;-53
2022/12/27 00:52:32;;;;;;;9.10;6.27;;;;;;;5.67;100.00;95262.28;5073622;28;20200;-54
2022/12/27 00:54:58;;;;;;;12.67;6.30;;;;;;;5.36;100.00;95220.31;5091909;28;20212;-56
2022/12/27 00:57:23;;;;;;;10.60;5.83;;;;;;;5.36;100.00;95217.78;5091543;28;20195;-57
2022/12/27 00:59:49;;;;;;;12.03;6.93;;;;;;;5.39;100.00;95236.97;5091126;28;20210;-57
2022/12/27 01:02:14;;;;;;;12.57;6.77;;;;;;;5.28;100.00;95232.50;5091315;28;20276;-54
2022/12/27 01:04:39;;;;;;;16.67;7.00;;;;;;;5.42;100.00;95237.59;5091088;28;20226;-56
2022/12/27 01:07:05;;;;;;;14.20;7.23;;;;;;;5.25;100.00;95226.84;5091145;28;20195;-54
2022/12/27 01:09:30;;;;;;;13.87;6.40;;;;;;;5.24;100.00;95220.97;5073136;28;20302;-55
2022/12/27 01:11:56;;;;;;;13.90;7.07;;;;;;;5.08;100.00;95207.59;5091469;28;20282;-55
2022/12/27 01:14:21;;;;;;;13.80;7.60;;;;;;;5.25;100.00;95231.88;5073093;28;20215;-55
2022/12/27 01:16:46;;;;;;;11.43;6.80;;;;;;;5.21;100.00;95223.69;5091470;28;20671;-56
2022/12/27 01:19:13;;;;;;;10.13;7.03;;;;;;;5.03;100.00;95209.53;5090147;28;20658;-57
2022/12/27 01:21:39;;;;;;;10.73;6.97;;;;;;;5.04;100.00;95204.44;5090247;28;20302;-58
2022/12/27 01:24:06;;;;;;;13.70;7.70;;;;;;;5.04;100.00;95206.94;5091103;28;20265;-55
2022/12/27 01:26:31;;;;;;;14.90;7.27;;;;;;;5.01;100.00;95181.91;5090675;28;20666;-57
2022/12/27 01:28:56;;;;;;;9.87;6.70;;;;;;;4.95;100.00;95187.28;5091078;28;20195;-53
2022/12/27 01:31:26;;;;;;;15.10;8.03;;;;;;;4.81;100.00;95151.16;5091268;28;20202;-54
2022/12/27 01:33:57;;;;;;;14.63;8.40;;;;;;;4.74;100.00;95145.66;5090669;28;20202;-53
2022/12/27 01:36:25;;;;;;;14.50;8.27;;;;;;;4.87;100.00;95166.75;5091341;28;20191;-53
2022/12/27 01:38:51;;;;;;;15.97;9.00;;;;;;;4.84;100.00;95166.91;5090634;28;20188;-53
2022/12/27 01:44:42;;;;;;;15.03;8.97;;;;;;;4.78;100.00;95162.22;5090990;28;20191;-53
2022/12/27 01:47:11;;;;;;;12.17;8.27;;;;;;;5.03;100.00;95186.84;5091223;28;20196;-54
2022/12/27 01:49:39;;;;;;;14.63;9.20;;;;;;;4.81;100.00;95176.31;5072879;28;20294;-53
2022/12/27 01:52:06;;;;;;;15.67;9.20;;;;;;;4.89;100.00;95169.16;5090535;28;20189;-54
2022/12/27 01:54:32;;;;;;;13.60;8.93;;;;;;;4.94;100.00;95179.81;5090462;28;20214;-53
2022/12/27 01:56:57;;;;;;;13.87;8.67;;;;;;;4.92;100.00;95176.56;5091783;28;20275;-54
2022/12/27 01:59:24;;;;;;;17.43;8.33;;;;;;;4.99;100.00;95176.16;5090478;28;20225;-53
2022/12/27 02:01:49;;;;;;;14.43;8.40;;;;;;;4.87;100.00;95169.25;5090470;28;20210;-53
2022/12/27 02:04:23;;;;;;;15.97;8.63;;;;;;;4.82;100.00;95157.81;5072163;28;20764;-54
2022/12/27 02:06:50;;;;;;;14.77;8.83;;;;;;;4.92;100.00;95186.66;5090727;28;20291;-53
2022/12/27 02:09:25;;;;;;;16.87;8.80;;;;;;;4.90;100.00;95178.38;5072761;28;20222;-56
2022/12/27 02:11:55;;;;;;;12.70;8.20;;;;;;;4.79;100.00;95166.34;5090405;28;20236;-54
2022/12/27 02:14:23;;;;;;;15.17;8.67;;;;;;;4.99;100.00;95188.75;5093552;28;20265;-56
2022/12/27 02:16:49;;;;;;;11.73;7.83;;;;;;;4.89;100.00;95162.44;5093988;28;20196;-56
2022/12/27 02:19:29;;;;;;;14.63;8.53;;;;;;;4.85;100.00;95178.59;5093788;28;20218;-55
2022/12/27 02:22:11;;;;;;;17.83;8.43;;;;;;;4.99;100.00;95181.19;5094154;28;20205;-55
2022/12/27 02:25:07;;;;;;;14.00;8.43;;;;;;;5.10;100.00;95183.94;5093601;28;20214;-56
2022/12/27 02:27:45;;;;;;;14.07;9.27;;;;;;;5.01;100.00;95181.91;5093769;28;20191;-53
2022/12/27 02:30:12;;;;;;;16.67;8.93;;;;;;;5.06;100.00;95187.53;5093656;28;20287;-55
2022/12/27 02:32:57;;;;;;;18.23;9.93;;;;;;;5.26;100.00;95218.38;5093587;28;20195;-57
2022/12/27 02:35:32;;;;;;;13.80;8.07;;;;;;;5.09;100.00;95187.34;5075665;28;20233;-56
2022/12/27 02:38:11;;;;;;;15.07;8.77;;;;;;;5.24;100.00;95212.59;5093700;28;20215;-56
2022/12/27 02:55:07;;;;;;;11.67;7.83;;;;;;;5.39;100.00;95247.06;5093201;28;20219;-56
2022/12/27 02:57:39;;;;;;;17.33;10.53;;;;;;;5.18;100.00;95225.53;5093178;28;20191;-56
2022/12/27 03:03:24;;;;;;;17.10;10.03;;;;;;;5.18;100.00;95210.41;5093078;28;20219;-55
2022/12/27 03:18:27;;;;;;;17.83;9.90;;;;;;;4.92;100.00;95222.72;5093052;28;20205;-57
2022/12/27 03:26:33;;;;;;;20.10;10.67;;;;;;;4.85;100.00;95193.72;5093238;28;20329;-56
2022/12/27 03:34:49;;;;;;;17.13;9.30;;;;;;;4.92;100.00;95237.84;5092526;28;20246;-55
2022/12/27 03:40:39;;;;;;;18.33;9.83;;;;;;;4.76;100.00;95214.38;5092636;28;20214;-56
2022/12/27 03:43:12;;;;;;;16.30;9.63;;;;;;;4.79;100.00;95218.41;5092351;28;20182;-57
2022/12/27 03:48:55;;;;;;;17.87;10.47;;;;;;;4.80;100.00;95210.78;5092457;28;20217;-57
2022/12/27 03:51:23;;;;;;;18.57;10.10;;;;;;;4.90;100.00;95222.00;5092640;28;20299;-55
2022/12/27 03:53:57;;;;;;;16.37;9.50;;;;;;;4.90;100.00;95223.69;5092309;28;20224;-57
2022/12/27 03:56:23;;;;;;;18.37;9.17;;;;;;;4.86;100.00;95215.50;5092818;28;20315;-53
2022/12/27 03:58:50;;;;;;;13.67;8.77;;;;;;;4.95;100.00;95209.97;5092225;28;20749;-53
2022/12/27 04:01:15;;;;;;;16.90;9.60;;;;;;;4.98;100.00;95204.78;5092302;28;20199;-54
2022/12/27 04:03:41;;;;;;;14.27;9.03;;;;;;;4.85;100.00;95176.09;5092115;28;20714;-53
2022/12/27 04:06:06;;;;;;;10.83;7.00;;;;;;;4.85;100.00;95183.63;5091909;28;20226;-55
2022/12/27 04:35:51;;;;;;;17.80;10.10;;;;;;;4.90;100.00;95269.84;5090755;28;20293;-54
2022/12/27 04:38:17;;;;;;;19.60;10.33;;;;;;;4.83;100.00;95270.25;5091771;28;20669;-53
2022/12/27 04:54:56;;;;;;;16.20;9.23;;;;;;;4.64;100.00;95262.84;5091388;28;20234;-56
2022/12/27 04:57:21;;;;;;;17.93;9.13;;;;;;;4.65;100.00;95277.06;5091530;28;20195;-55
2022/12/27 05:02:30;;;;;;;21.97;10.17;;;;;;;4.53;100.00;95271.84;5091226;28;20737;-56
2022/12/27 05:04:57;;;;;;;20.20;10.83;;;;;;;4.58;100.00;95274.94;5072956;28;20229;-56
2022/12/27 05:15:35;;;;;;;21.13;10.13;;;;;;;4.52;100.00;95248.38;5091519;28;20245;-56
2022/12/27 05:18:01;;;;;;;21.83;11.60;;;;;;;4.60;100.00;95258.88;5091122;28;20191;-56
2022/12/27 05:20:26;;;;;;;19.60;10.50;;;;;;;4.53;100.00;95237.41;5091217;28;20210;-56
2022/12/27 05:25:41;;;;;;;16.10;9.70;;;;;;;4.40;100.00;95197.88;5091005;28;20605;-55
2022/12/27 05:28:09;;;;;;;20.37;9.40;;;;;;;4.41;100.00;95186.88;5090876;28;20278;-55
2022/12/27 05:30:37;;;;;;;13.90;8.73;;;;;;;4.50;100.00;95193.97;5091054;28;20226;-55
2022/12/27 05:33:09;;;;;;;14.07;7.80;;;;;;;4.59;100.00;95173.34;5091240;28;20244;-54
2022/12/27 05:35:35;;;;;;;15.23;7.90;;;;;;;4.56;100.00;95161.75;5091207;28;20223;-57
2022/12/27 05:38:01;;;;;;;12.17;6.03;;;;;;;4.59;100.00;95161.56;5090920;28;20609;-55
2022/12/27 05:40:27;;;;;;;12.43;6.30;;;;;;;4.66;100.00;95175.47;5090584;28;20210;-55
2022/12/27 05:42:53;;;;;;;10.73;6.57;;;;;;;4.76;100.00;95171.56;5090595;28;20199;-55
2022/12/27 05:45:19;;;;;;;12.47;7.63;;;;;;;4.86;100.00;95169.34;5090745;28;20303;-56
2022/12/27 05:47:44;;;;;;;12.93;7.27;;;;;;;4.83;100.00;95177.06;5092868;28;20195;-55
2022/12/27 05:50:10;;;;;;;9.43;6.80;;;;;;;4.92;100.00;95181.63;5094020;28;20303;-55
2022/12/27 05:52:36;;;;;;;18.77;8.00;;;;;;;4.89;100.00;95207.78;5075943;28;20180;-55
2022/12/27 05:55:01;;;;;;;13.67;7.93;;;;;;;4.93;100.00;95221.00;5094463;28;20207;-53
2022/12/27 05:57:27;;;;;;;22.20;10.20;;;;;;;4.94;100.00;95252.88;5093981;28;20216;-53
2022/12/27 05:59:52;;;;;;;34.83;18.93;;;;;;;4.80;100.00;95291.38;5094019;28;20689;-54
2022/12/27 06:02:17;;;;;;;34.93;19.07;;;;;;;4.52;100.00;95248.38;5094280;28;20226;-53
2022/12/27 06:04:43;;;;;;;38.07;21.83;;;;;;;4.44;100.00;95272.31;5093903;28;20211;-52
2022/12/27 06:07:10;;;;;;;39.47;23.23;;;;;;;4.34;100.00;95294.63;5094092;28;20645;-55
2022/12/27 06:09:36;;;;;;;47.87;24.13;;;;;;;4.05;100.00;95257.53;5093811;28;20215;-56
2022/12/27 06:12:01;;;;;;;42.70;24.70;;;;;;;4.09;100.00;95276.59;5093975;28;20212;-55
2022/12/27 06:14:27;;;;;;;53.90;25.77;;;;;;;4.11;100.00;95292.44;5093868;28;20204;-55
2022/12/27 06:16:52;;;;;;;48.60;27.07;;;;;;;4.07;100.00;95308.56;5094072;28;20248;-55
2022/12/27 06:19:18;;;;;;;44.90;26.87;;;;;;;3.85;100.00;95295.41;5093669;28;20585;-55
2022/12/27 06:21:43;;;;;;;54.90;29.33;;;;;;;3.64;100.00;95238.59;5093549;28;20228;-55
2022/12/27 06:24:09;;;;;;;50.13;27.33;;;;;;;3.53;100.00;95244.19;5075705;28;20281;-56
2022/12/27 06:26:34;;;;;;;56.07;28.47;;;;;;;3.54;100.00;95260.88;5093427;28;20293;-54
2022/12/27 06:29:06;;;;;;;50.20;28.07;;;;;;;3.49;100.00;95220.06;5075304;28;20671;-56
2022/12/27 06:31:31;;;;;;;53.77;27.70;;;;;;;3.61;100.00;95249.66;5093879;28;20212;-56
2022/12/27 06:33:57;;;;;;;49.23;26.97;;;;;;;3.76;100.00;95250.59;5093306;28;20191;-57
2022/12/27 06:36:29;;;;;;;41.30;24.20;;;;;;;3.73;100.00;95256.59;5094009;28;20663;-53
2022/12/27 06:38:54;;;;;;;44.13;26.53;;;;;;;4.02;100.00;95280.31;5093316;28;20273;-53
2022/12/27 06:41:19;;;;;;;40.47;21.13;;;;;;;4.07;100.00;95275.88;5093739;28;20263;-55
2022/12/27 06:43:46;;;;;;;29.90;17.33;;;;;;;3.74;100.00;95233.06;5093223;28;20184;-55
2022/12/27 06:46:14;;;;;;;25.43;14.67;;;;;;;4.00;100.00;95261.97;5093121;28;20715;-54
2022/12/27 06:48:40;;;;;;;19.57;12.43;;;;;;;3.90;100.00;95261.59;5075071;28;20184;-56
2022/12/27 06:51:07;;;;;;;25.40;13.03;;;;;;;3.78;100.00;95251.31;5093680;28;20686;-55
2022/12/27 06:53:35;;;;;;;22.20;12.63;;;;;;;3.46;100.00;95230.25;5093053;28;20188;-56
2022/12/27 06:56:04;;;;;;;25.93;13.50;;;;;;;3.40;100.00;95223.84;5093387;28;20681;-54
2022/12/27 06:58:30;;;;;;;24.33;13.50;;;;;;;3.32;100.00;95228.41;5074192;28;20184;-53
2022/12/27 07:00:55;;;;;;;22.37;13.17;;;;;;;3.19;100.00;95227.34;5093231;28;20288;-52
2022/12/27 07:03:20;;;;;;;27.67;13.63;;;;;;;3.36;100.00;95232.41;5092875;28;20191;-54
2022/12/27 07:05:46;;;;;;;29.17;14.60;;;;;;;3.64;100.00;95238.59;5092850;28;20681;-52
2022/12/27 07:08:11;;;;;;;23.60;12.40;;;;;;;3.95;100.00;95249.63;5092932;28;20180;-56
2022/12/27 07:10:37;;;;;;;22.37;12.63;;;;;;;4.18;100.00;95251.00;5092734;28;20279;-56
2022/12/27 07:13:03;;;;;;;23.57;13.67;;;;;;;4.57;100.00;95258.19;5092806;28;20189;-56
2022/12/27 07:15:29;;;;;;;25.60;12.97;;;;;;;4.66;100.00;95261.06;5093011;28;20214;-57
2022/12/27 07:17:54;;;;;;;23.23;12.77;;;;;;;4.89;100.00;95295.09;5092618;28;20187;-56
2022/12/27 07:20:20;;;;;;;20.63;11.83;;;;;;;4.79;100.00;95269.59;5092963;28;20210;-56
2022/12/27 07:22:45;;;;;;;20.80;13.57;;;;;;;4.77;100.00;95255.44;5092584;28;20230;-57
2022/12/27 07:25:10;;;;;;;21.67;12.87;;;;;;;4.73;100.00;95259.03;5092666;28;20291;-56
2022/12/27 07:27:36;;;;;;;27.53;14.50;;;;;;;4.91;100.00;95279.03;5092763;28;20632;-57
2022/12/27 07:30:03;;;;;;;22.50;12.63;;;;;;;4.92;100.00;95270.59;5100406;22;20219;-56
2022/12/27 07:32:29;;;;;;;23.13;11.93;;;;;;;5.03;100.00;95272.50;5092309;28;20191;-57
2022/12/27 07:34:54;;;;;;;21.83;12.80;;;;;;;5.09;100.00;95265.44;5092541;28;20260;-56
2022/12/27 07:37:20;;;;;;;21.80;11.17;;;;;;;5.24;100.00;95285.69;5074147;28;20222;-58
2022/12/27 07:39:45;;;;;;;23.30;11.53;;;;;;;5.44;100.00;95305.59;5092010;28;20230;-57
2022/12/27 07:42:11;;;;;;;22.50;12.23;;;;;;;5.46;100.00;95286.97;5092288;28;20248;-57
2022/12/27 07:44:37;;;;;;;20.47;10.97;;;;;;;5.66;100.00;95306.84;5092138;28;20748;-61
2022/12/27 07:47:02;;;;;;;24.73;12.13;;;;;;;5.98;100.00;95312.66;5092305;28;20548;-56
2022/12/27 07:49:28;;;;;;;20.47;12.27;;;;;;;6.35;100.00;95357.63;5093052;28;20665;-55
2022/12/27 07:51:53;;;;;;;22.07;11.60;;;;;;;6.46;100.00;95342.69;5092047;28;20248;-56
2022/12/27 07:54:19;;;;;;;16.27;11.93;;;;;;;6.74;100.00;95359.59;5092259;28;20610;-55
2022/12/27 07:56:44;;;;;;;21.40;11.50;;;;;;;7.03;100.00;95409.22;5092013;28;20709;-54
2022/12/27 07:59:11;;;;;;;18.07;11.10;;;;;;;7.02;100.00;95414.38;5091886;28;21552;-57
2022/12/27 08:02:02;;;;;;;18.20;10.40;;;;;;;7.21;100.00;95465.50;5073692;28;20188;-55
2022/12/27 08:04:23;;;;;;;20.00;11.73;;;;;;;6.95;100.00;95426.53;5091950;28;20307;-55
2022/12/27 08:06:49;;;;;;;22.40;11.33;;;;;;;7.21;100.00;95441.00;5091907;28;20302;-54
2022/12/27 08:09:19;;;;;;;21.00;11.37;;;;;;;7.42;100.00;95461.69;5091995;28;20212;-57
2022/12/27 08:11:44;;;;;;;19.57;12.50;;;;;;;7.71;100.00;95478.47;5090664;28;20677;-56
2022/12/27 08:14:10;;;;;;;20.90;12.47;;;;;;;7.85;100.00;95480.16;5091624;28;20295;-56
2022/12/27 08:16:35;;;;;;;24.70;14.37;;;;;;;8.16;100.00;95508.56;5091435;28;20640;-55
2022/12/27 08:19:01;;;;;;;24.63;15.20;;;;;;;8.44;100.00;95535.59;5091921;28;20272;-56
2022/12/27 08:21:26;;;;;;;28.13;16.17;;;;;;;8.54;100.00;95536.66;5073428;28;20199;-55
2022/12/27 08:23:52;;;;;;;28.17;16.83;;;;;;;8.59;100.00;95519.41;5091713;28;20192;-54
2022/12/27 08:26:17;;;;;;;26.90;16.50;;;;;;;8.91;100.00;95537.63;5091295;28;20243;-54
2022/12/27 08:28:42;;;;;;;24.10;14.73;;;;;;;9.10;100.00;95544.00;5091865;28;20350;-53
2022/12/27 08:31:10;;;;;;;18.50;10.60;;;;;;;9.41;100.00;95547.88;5091469;28;20743;-54
2022/12/27 08:33:36;;;;;;;19.60;11.20;;;;;;;9.65;100.00;95586.88;5091671;28;20204;-54
2022/12/27 08:36:07;;;;;;;17.27;11.37;;;;;;;9.56;100.00;95574.78;5091583;28;20681;-53
2022/12/27 08:38:33;;;;;;;21.20;11.17;;;;;;;9.93;100.00;95581.59;5073381;28;20196;-55
2022/12/27 08:40:59;;;;;;;18.90;11.83;;;;;;;10.23;100.00;95595.69;5091338;28;20737;-55
2022/12/27 08:43:24;;;;;;;15.53;10.57;;;;;;;10.61;100.00;95604.84;5091430;28;20341;-54
2022/12/27 08:45:50;;;;;;;13.53;10.13;;;;;;;10.54;100.00;95597.75;5091360;28;20219;-53
2022/12/27 08:48:15;;;;;;;19.33;11.17;;;;;;;9.97;100.00;95554.25;5090949;28;20227;-53
2022/12/27 08:50:41;;;;;;;19.67;10.30;;;;;;;10.18;100.00;95549.47;5091352;28;20227;-53
2022/12/27 08:53:06;;;;;;;19.63;12.33;;;;;;;10.22;100.00;95550.88;5091482;28;20712;-53
2022/12/27 08:55:32;;;;;;;18.47;11.83;;;;;;;10.17;100.00;95547.81;5091330;28;20693;-54
2022/12/27 08:58:00;;;;;;;17.50;10.77;;;;;;;10.58;100.00;95561.03;5090973;28;20180;-55
2022/12/27 09:00:26;;;;;;;20.23;11.57;;;;;;;10.66;100.00;95577.38;5091368;28;20263;-54
2022/12/27 09:02:52;;;;;;;18.63;11.50;;;;;;;10.95;99.51;95595.63;5091216;28;20192;-55
2022/12/27 09:05:18;;;;;;;19.37;11.63;;;;;;;11.14;99.20;95579.88;5090959;28;20368;-54
2022/12/27 09:07:44;;;;;;;17.17;11.80;;;;;;;11.63;98.16;95606.78;5091180;28;20233;-54
2022/12/27 09:10:10;;;;;;;23.07;12.30;;;;;;;11.98;95.76;95639.84;5090982;28;20776;-54
2022/12/27 09:12:35;;;;;;;19.20;11.53;;;;;;;12.13;94.94;95648.09;5090963;28;20306;-53
2022/12/27 09:15:01;;;;;;;22.03;12.40;;;;;;;12.54;93.16;95671.28;5091403;28;20216;-54
2022/12/27 09:17:26;;;;;;;19.87;10.37;;;;;;;12.91;93.13;95659.84;5090846;28;20203;-54
2022/12/27 09:19:52;;;;;;;17.87;11.43;;;;;;;13.35;90.81;95702.38;5091249;28;20305;-55
2022/12/27 09:22:17;;;;;;;15.20;10.60;;;;;;;13.59;89.44;95712.41;5092470;28;20668;-55
2022/12/27 09:24:42;;;;;;;15.57;10.97;;;;;;;13.83;75.45;95724.03;5094677;28;20211;-54
2022/12/27 09:27:08;;;;;;;20.53;11.30;;;;;;;14.04;75.27;95695.91;5094528;28;20187;-54
2022/12/27 09:29:33;;;;;;;18.20;11.47;;;;;;;14.22;71.33;95695.22;5076285;28;20222;-54
2022/12/27 09:31:59;;;;;;;20.70;11.30;;;;;;;14.53;70.83;95688.41;5094398;28;20192;-54
2022/12/27 09:34:24;;;;;;;18.27;11.50;;;;;;;14.73;68.65;95722.56;5094588;28;20216;-54
2022/12/27 09:36:50;;;;;;;22.50;12.17;;;;;;;14.84;67.77;95697.69;5076337;28;20226;-53
2022/12/27 09:39:16;;;;;;;20.80;11.50;;;;;;;15.02;65.04;95701.25;5094556;28;20239;-54
2022/12/27 09:42:10;;;;;;;17.77;10.83;;;;;;;14.82;63.06;95694.44;5094177;28;20212;-54
2022/12/27 09:44:42;;;;;;;17.75;11.25;;;;;;;15.35;61.97;95705.19;5094395;28;20216;-55
2022/12/27 09:47:22;;;;;;;14.48;10.45;;;;;;;15.54;61.87;95697.56;5094094;28;20229;-54
2022/12/27 09:49:52;;;;;;;15.88;10.32;;;;;;;15.90;60.38;95703.75;5094091;28;20216;-54
2022/12/27 09:52:35;;;;;;;16.95;11.02;;;;;;;16.09;59.18;95713.19;5094174;28;20276;-54
2022/12/27 09:55:31;;;;;;;17.73;11.25;;;;;;;16.03;59.22;95675.28;5094030;28;20216;-54
2022/12/27 09:58:12;;;;;;;19.60;12.77;;;;;;;16.36;58.83;95701.25;5094072;28;20207;-54
2022/12/27 10:00:37;;;;;;;18.88;12.07;;;;;;;16.51;57.47;95725.56;5094068;28;20264;-57
2022/12/27 10:03:04;;;;;;;22.10;12.88;;;;;;;16.07;57.91;95715.91;5093890;28;20275;-57
2022/12/27 10:05:33;;;;;;;24.83;12.77;;;;;;;16.18;57.83;95708.03;5093836;28;20219;-57
2022/12/27 10:08:20;;;;;;;22.00;14.93;;;;;;;16.52;57.37;95705.84;5093905;28;20225;-55
2022/12/27 10:11:01;;;;;;;22.73;13.57;;;;;;;16.66;56.20;95713.88;5093763;28;20212;-54
2022/12/27 10:13:48;;;;;;;24.83;13.95;;;;;;;16.58;56.85;95687.31;5093877;28;20187;-54
2022/12/27 10:16:28;;;;;;;33.85;14.68;;;;;;;17.11;92.19;95099.06;5093602;28;20235;-55
2022/12/27 10:19:21;;;;;;;18.88;12.75;;;;;;;17.42;57.73;95687.00;5093409;28;20200;-55
2022/12/27 10:22:25;;;;;;;22.55;14.82;;;;;;;17.56;56.70;95678.81;5093520;28;20241;-57
2022/12/27 10:24:57;;;;;;;16.17;11.07;;;;;;;17.26;54.39;95709.16;5079345;28;20739;-57
2022/12/27 10:27:24;;;;;;;16.95;10.82;;;;;;;17.15;54.05;95702.44;5093453;28;20184;-59
2022/12/27 10:29:55;;;;;;;15.85;10.52;;;;;;;17.38;53.92;95708.81;5093558;28;20224;-58
2022/12/27 10:32:21;;;;;;;16.00;10.77;;;;;;;17.15;54.14;95684.47;5093348;28;20188;-57
2022/12/27 10:34:53;;;;;;;19.83;12.05;;;;;;;17.27;55.18;95661.94;5092575;28;20208;-54
2022/12/27 10:37:18;;;;;;;15.50;11.13;;;;;;;17.36;54.33;95684.19;5093259;28;20211;-54
2022/12/27 10:39:44;;;;;;;20.77;12.07;;;;;;;17.28;62.56;95479.31;5093593;28;20250;-54
2022/12/27 10:42:18;;;;;;;19.27;11.50;;;;;;;18.46;70.00;95366.13;5093227;28;20616;-58
2022/12/27 10:44:43;;;;;;;18.90;10.65;;;;;;;19.11;66.07;95453.56;5093580;28;20740;-56
2022/12/27 10:47:09;;;;;;;22.83;12.45;;;;;;;19.52;67.40;95425.97;5093250;28;20264;-58
2022/12/27 10:49:36;;;;;;;18.67;12.65;;;;;;;19.71;55.01;95704.28;5093384;28;20212;-59
2022/12/27 10:52:21;;;;;;;19.65;13.02;;;;;;;18.72;53.49;95702.50;5093048;28;20196;-57
2022/12/27 10:54:52;;;;;;;23.95;15.52;;;;;;;18.06;59.55;95536.72;5093300;28;20196;-59
2022/12/27 10:57:31;;;;;;;22.75;15.80;;;;;;;17.48;55.88;95636.75;5093176;28;20199;-57
2022/12/27 11:00:17;;;;;;;24.02;15.45;;;;;;;16.76;60.22;95514.38;5093377;28;20276;-57
2022/12/27 11:02:57;;;;;;;24.00;15.35;;;;;;;16.19;56.18;95595.97;5093197;28;20654;-57
2022/12/27 11:05:28;;;;;;;26.90;15.45;;;;;;;15.11;59.78;95507.53;5093450;28;20219;-55
2022/12/27 11:07:54;;;;;;;22.52;14.30;;;;;;;15.17;61.23;95468.56;5092132;28;20271;-57
2022/12/27 11:10:23;;;;;;;19.23;14.15;;;;;;;15.04;62.82;95421.97;5092721;28;20299;-57
2022/12/27 11:13:01;;;;;;;24.50;14.93;;;;;;;15.12;62.86;95445.94;5092819;28;20654;-56
2022/12/27 11:15:29;;;;;;;21.38;14.27;;;;;;;14.89;65.92;95362.69;5092499;28;20223;-56
2022/12/27 11:17:59;;;;;;;19.92;13.73;;;;;;;15.53;70.86;95279.94;5092711;28;20199;-58
2022/12/27 11:20:39;;;;;;;29.42;19.20;;;;;;;15.66;65.14;95408.56;5092860;28;20273;-59
2022/12/27 11:23:08;;;;;;;37.38;22.80;;;;;;;15.65;70.15;95302.66;5092761;28;20703;-58
2022/12/27 11:25:34;;;;;;;33.65;21.80;;;;;;;15.67;69.94;95300.78;5092323;28;20271;-60
2022/12/27 11:28:38;;;;;;;32.35;21.85;;;;;;;15.61;70.80;95290.28;5092458;28;20275;-60
2022/12/27 11:31:07;;;;;;;31.70;20.95;;;;;;;15.66;70.30;95291.44;5053660;28;20231;-56
2022/12/27 11:33:40;;;;;;;31.25;21.27;;;;;;;15.85;68.12;95341.81;5074081;28;20286;-57
2022/12/27 11:36:10;;;;;;;34.45;20.40;;;;;;;15.74;65.17;95406.09;5092502;28;20201;-57
2022/12/27 11:38:37;;;;;;;33.33;21.67;;;;;;;15.74;67.25;95349.69;5092414;28;20211;-56
2022/12/27 11:41:03;;;;;;;30.58;19.73;;;;;;;15.86;68.17;95340.84;5091968;28;20244;-56
2022/12/27 11:43:34;;;;;;;34.38;21.23;;;;;;;15.63;64.25;95431.94;5074039;28;20222;-57
2022/12/27 11:46:04;;;;;;;31.98;20.48;;;;;;;15.69;66.69;95382.66;5090906;28;20216;-59
2022/12/27 11:48:37;;;;;;;31.00;20.45;;;;;;;15.93;69.08;95317.06;5092431;28;20211;-61
2022/12/27 11:51:23;;;;;;;29.55;19.95;;;;;;;16.00;64.70;95417.28;5092197;28;20302;-61
2022/12/27 11:54:12;;;;;;;29.95;19.98;;;;;;;15.98;65.85;95402.03;5092257;28;20195;-60
2022/12/27 11:56:43;;;;;;;34.65;19.25;;;;;;;16.27;67.15;95367.69;5092198;28;20211;-59
2022/12/27 11:59:33;;;;;;;28.77;18.98;;;;;;;16.27;63.56;95447.25;5092512;28;20203;-60
2022/12/27 12:02:43;;;;;;;28.80;18.35;;;;;;;16.09;64.27;95423.31;5091926;28;20183;-61
2022/12/27 12:05:14;;;;;;;26.27;18.30;;;;;;;16.17;62.81;95465.25;5092099;28;20256;-59
2022/12/27 12:07:42;;;;;;;29.02;18.48;;;;;;;15.83;65.63;95389.88;5073995;28;20274;-60
2022/12/27 12:10:29;;;;;;;32.25;19.17;;;;;;;15.28;64.17;95421.47;5091744;28;20722;-60
2022/12/27 12:13:00;;;;;;;27.00;17.80;;;;;;;15.36;65.65;95385.72;5092106;28;20188;-60
2022/12/27 12:15:54;;;;;;;31.20;18.90;;;;;;;14.91;64.65;95406.88;5092168;28;20690;-61
2022/12/27 12:18:39;;;;;;;31.58;18.95;;;;;;;14.92;67.41;95347.06;5091959;28;20188;-60
2022/12/27 12:21:10;;;;;;;31.23;18.50;;;;;;;14.39;66.62;95361.28;5091790;28;20214;-58
2022/12/27 12:24:06;;;;;;;29.40;18.35;;;;;;;14.02;67.89;95327.88;5091775;28;20194;-57
2022/12/27 12:26:47;;;;;;;31.42;18.70;;;;;;;13.77;69.59;95296.91;5091588;28;20298;-56
2022/12/27 12:29:42;;;;;;;25.80;17.60;;;;;;;13.72;69.64;95287.09;5091643;28;20290;-56
2022/12/27 12:32:24;;;;;;;32.75;19.35;;;;;;;13.41;70.64;95278.69;5091830;28;20199;-59
2022/12/27 12:35:15;;;;;;;30.20;19.05;;;;;;;13.37;71.26;95268.91;5092097;28;20280;-59
2022/12/27 12:37:58;;;;;;;30.70;19.83;;;;;;;13.11;72.02;95262.66;5091758;28;20264;-58
2022/12/27 12:40:33;;;;;;;31.40;20.40;;;;;;;12.86;72.81;95256.22;5091989;28;20693;-60
2022/12/27 12:43:36;;;;;;;33.13;19.43;;;;;;;12.86;72.68;95256.22;5091411;28;20653;-55
2022/12/27 12:46:32;;;;;;;38.37;21.13;;;;;;;13.00;73.20;95247.41;5091204;28;20678;-56
2022/12/27 12:49:37;;;;;;;33.83;19.70;;;;;;;13.09;72.66;95259.41;5091298;28;20279;-59
2022/12/27 12:52:08;;;;;;;35.63;20.70;;;;;;;13.04;73.93;95238.56;5091494;28;20187;-58
2022/12/27 12:55:11;;;;;;;29.43;19.07;;;;;;;13.30;75.66;95214.97;5091179;28;20764;-59
2022/12/27 12:57:47;;;;;;;35.42;19.38;;;;;;;13.34;71.98;95282.72;5090558;28;20195;-58
2022/12/27 13:00:15;;;;;;;39.67;20.97;;;;;;;13.21;74.19;95246.41;5091538;28;20216;-57
2022/12/27 13:02:59;;;;;;;30.57;20.10;;;;;;;13.11;75.94;95220.03;5091380;28;20264;-59
2022/12/27 13:05:53;;;;;;;28.93;19.13;;;;;;;13.28;77.69;95199.00;5091396;28;20219;-59
2022/12/27 13:08:43;;;;;;;32.90;19.23;;;;;;;13.44;72.82;95291.22;5059739;28;20299;-56
2022/12/27 13:11:36;;;;;;;33.88;19.75;;;;;;;13.56;72.26;95298.75;5090993;28;20257;-55
2022/12/27 13:14:10;;;;;;;28.33;17.63;;;;;;;13.56;72.93;95298.75;5091126;28;20215;-56
2022/12/27 13:17:05;;;;;;;31.20;18.10;;;;;;;13.57;73.61;95287.59;5090967;28;20184;-55
2022/12/27 13:19:45;;;;;;;23.33;14.57;;;;;;;13.49;74.41;95263.53;5091125;28;20704;-55
2022/12/27 13:22:47;;;;;;;23.50;13.63;;;;;;;13.45;75.66;95246.06;5090915;28;20183;-59